sensor_id;sensor_type;location;lat;lon;timestamp;temperature;humidity
54202;DHT22;40108;53.152;5.844;2023-02-08T00:05:08;-3276.10;92.50
54202;DHT22;40108;53.152;5.844;2023-02-08T00:07:44;-3276.10;92.40
54202;DHT22;40108;53.152;5.844;2023-02-08T00:10:25;-3276.10;92.50
54202;DHT22;40108;53.152;5.844;2023-02-08T00:13:09;-3276.00;92.40
54202;DHT22;40108;53.152;5.844;2023-02-08T00:15:54;-3276.00;92.40
54202;DHT22;40108;53.152;5.844;2023-02-08T00:19:00;-3275.90;92.40
54202;DHT22;40108;53.152;5.844;2023-02-08T00:21:42;-3275.90;92.30
54202;DHT22;40108;53.152;5.844;2023-02-08T00:24:38;-3275.90;92.30
54202;DHT22;40108;53.152;5.844;2023-02-08T00:27:09;-3275.80;92.30
54202;DHT22;40108;53.152;5.844;2023-02-08T00:29:53;-3275.80;92.30
54202;DHT22;40108;53.152;5.844;2023-02-08T00:32:30;-3275.80;92.30
54202;DHT22;40108;53.152;5.844;2023-02-08T00:41:15;-3275.80;92.40
54202;DHT22;40108;53.152;5.844;2023-02-08T00:43:51;-3275.70;92.40
54202;DHT22;40108;53.152;5.844;2023-02-08T00:49:11;-3275.70;92.40
54202;DHT22;40108;53.152;5.844;2023-02-08T00:51:51;-3275.70;92.40
54202;DHT22;40108;53.152;5.844;2023-02-08T00:54:37;-3275.70;92.30
54202;DHT22;40108;53.152;5.844;2023-02-08T00:57:23;-3275.70;92.30
54202;DHT22;40108;53.152;5.844;2023-02-08T01:00:00;-3275.70;92.30
54202;DHT22;40108;53.152;5.844;2023-02-08T01:02:46;-3275.70;92.30
54202;DHT22;40108;53.152;5.844;2023-02-08T01:05:23;-3275.70;92.40
54202;DHT22;40108;53.152;5.844;2023-02-08T01:08:02;-3275.70;92.40
54202;DHT22;40108;53.152;5.844;2023-02-08T01:10:45;-3275.70;92.40
54202;DHT22;40108;53.152;5.844;2023-02-08T01:13:16;-3275.70;92.40
54202;DHT22;40108;53.152;5.844;2023-02-08T01:15:48;-3275.70;92.20
54202;DHT22;40108;53.152;5.844;2023-02-08T01:18:31;-3275.60;92.20
54202;DHT22;40108;53.152;5.844;2023-02-08T01:21:16;-3275.60;92.20
54202;DHT22;40108;53.152;5.844;2023-02-08T01:23:48;-3275.60;92.40
54202;DHT22;40108;53.152;5.844;2023-02-08T01:26:18;-3275.50;92.50
54202;DHT22;40108;53.152;5.844;2023-02-08T01:28:52;-3275.50;92.60
54202;DHT22;40108;53.152;5.844;2023-02-08T01:31:28;-3275.50;92.50
54202;DHT22;40108;53.152;5.844;2023-02-08T01:34:05;-3275.50;92.60
54202;DHT22;40108;53.152;5.844;2023-02-08T01:39:42;-3275.50;92.80
54202;DHT22;40108;53.152;5.844;2023-02-08T01:42:29;-3275.50;92.80
54202;DHT22;40108;53.152;5.844;2023-02-08T01:45:20;-3275.50;92.90
54202;DHT22;40108;53.152;5.844;2023-02-08T01:51:20;-3275.40;92.80
54202;DHT22;40108;53.152;5.844;2023-02-08T01:54:09;-3275.40;92.70
54202;DHT22;40108;53.152;5.844;2023-02-08T01:56:43;-3275.40;92.70
54202;DHT22;40108;53.152;5.844;2023-02-08T01:59:21;-3275.30;92.80
54202;DHT22;40108;53.152;5.844;2023-02-08T02:01:58;-3275.30;92.80
54202;DHT22;40108;53.152;5.844;2023-02-08T02:04:30;-3275.30;92.70
54202;DHT22;40108;53.152;5.844;2023-02-08T02:06:58;-3275.30;92.70
54202;DHT22;40108;53.152;5.844;2023-02-08T02:18:23;-3275.20;92.70
54202;DHT22;40108;53.152;5.844;2023-02-08T02:27:28;-3275.20;92.70
54202;DHT22;40108;53.152;5.844;2023-02-08T02:42:42;-3275.10;92.70
54202;DHT22;40108;53.152;5.844;2023-02-08T02:45:32;-3275.10;92.70
54202;DHT22;40108;53.152;5.844;2023-02-08T02:57:01;-3275.00;92.70
54202;DHT22;40108;53.152;5.844;2023-02-08T03:02:44;-3275.00;92.80
54202;DHT22;40108;53.152;5.844;2023-02-08T03:05:23;-3275.10;92.80
54202;DHT22;40108;53.152;5.844;2023-02-08T03:08:34;-3275.00;92.80
54202;DHT22;40108;53.152;5.844;2023-02-08T03:11:21;-3275.00;92.80
54202;DHT22;40108;53.152;5.844;2023-02-08T03:17:40;-3275.00;92.80
54202;DHT22;40108;53.152;5.844;2023-02-08T03:26:40;-3275.00;92.90
54202;DHT22;40108;53.152;5.844;2023-02-08T03:32:22;-3274.90;92.90
54202;DHT22;40108;53.152;5.844;2023-02-08T03:38:41;-3274.80;92.80
54202;DHT22;40108;53.152;5.844;2023-02-08T03:40:52;-3274.80;92.80
54202;DHT22;40108;53.152;5.844;2023-02-08T03:43:43;-3274.90;92.80
54202;DHT22;40108;53.152;5.844;2023-02-08T03:46:57;-3274.80;92.80
54202;DHT22;40108;53.152;5.844;2023-02-08T03:49:35;-3274.80;92.70
54202;DHT22;40108;53.152;5.844;2023-02-08T03:52:13;-3274.90;92.80
54202;DHT22;40108;53.152;5.844;2023-02-08T03:55:23;-3274.80;92.70
54202;DHT22;40108;53.152;5.844;2023-02-08T03:58:30;-3274.80;92.70
54202;DHT22;40108;53.152;5.844;2023-02-08T04:01:37;-3274.80;92.70
54202;DHT22;40108;53.152;5.844;2023-02-08T04:04:20;-3274.80;92.70
54202;DHT22;40108;53.152;5.844;2023-02-08T04:07:13;-3274.80;92.70
54202;DHT22;40108;53.152;5.844;2023-02-08T04:09:53;-3274.80;92.70
54202;DHT22;40108;53.152;5.844;2023-02-08T04:15:16;-3274.90;92.70
54202;DHT22;40108;53.152;5.844;2023-02-08T04:21:07;-3274.80;92.70
54202;DHT22;40108;53.152;5.844;2023-02-08T04:23:35;-3274.90;92.80
54202;DHT22;40108;53.152;5.844;2023-02-08T04:26:15;-3274.90;92.80
54202;DHT22;40108;53.152;5.844;2023-02-08T04:29:04;-3274.90;92.70
54202;DHT22;40108;53.152;5.844;2023-02-08T04:34:21;-3274.80;92.60
54202;DHT22;40108;53.152;5.844;2023-02-08T04:37:33;-3274.70;92.60
54202;DHT22;40108;53.152;5.844;2023-02-08T04:40:15;-3274.70;92.60
54202;DHT22;40108;53.152;5.844;2023-02-08T04:42:51;-3274.70;92.70
54202;DHT22;40108;53.152;5.844;2023-02-08T04:45:20;-3274.70;92.60
54202;DHT22;40108;53.152;5.844;2023-02-08T04:48:21;-3274.70;92.60
54202;DHT22;40108;53.152;5.844;2023-02-08T04:50:49;-3274.70;92.60
54202;DHT22;40108;53.152;5.844;2023-02-08T04:53:35;-3274.70;92.70
54202;DHT22;40108;53.152;5.844;2023-02-08T04:56:16;-3274.70;92.70
54202;DHT22;40108;53.152;5.844;2023-02-08T04:59:10;-3274.70;92.70
54202;DHT22;40108;53.152;5.844;2023-02-08T05:01:54;-3274.70;92.70
54202;DHT22;40108;53.152;5.844;2023-02-08T05:04:32;-3274.70;92.80
54202;DHT22;40108;53.152;5.844;2023-02-08T05:07:08;-3274.80;92.80
54202;DHT22;40108;53.152;5.844;2023-02-08T05:09:47;-3274.80;92.90
54202;DHT22;40108;53.152;5.844;2023-02-08T05:12:31;-3274.80;92.90
54202;DHT22;40108;53.152;5.844;2023-02-08T05:15:24;-3274.80;92.90
54202;DHT22;40108;53.152;5.844;2023-02-08T05:17:50;-3274.80;92.90
54202;DHT22;40108;53.152;5.844;2023-02-08T05:20:32;-3274.80;92.80
54202;DHT22;40108;53.152;5.844;2023-02-08T05:23:26;-3274.80;92.80
54202;DHT22;40108;53.152;5.844;2023-02-08T05:26:03;-3274.80;92.80
54202;DHT22;40108;53.152;5.844;2023-02-08T05:28:34;-3274.80;92.80
54202;DHT22;40108;53.152;5.844;2023-02-08T05:31:24;-3274.70;92.80
54202;DHT22;40108;53.152;5.844;2023-02-08T05:34:16;-3274.70;92.70
54202;DHT22;40108;53.152;5.844;2023-02-08T05:47:36;-3274.60;92.80
54202;DHT22;40108;53.152;5.844;2023-02-08T05:50:08;-3274.60;92.80
54202;DHT22;40108;53.152;5.844;2023-02-08T05:52:38;-3274.60;92.80
54202;DHT22;40108;53.152;5.844;2023-02-08T05:55:17;-3274.60;92.90
54202;DHT22;40108;53.152;5.844;2023-02-08T05:57:55;-3274.60;92.90
54202;DHT22;40108;53.152;5.844;2023-02-08T06:00:24;-3274.60;92.90
54202;DHT22;40108;53.152;5.844;2023-02-08T06:03:01;-3274.60;92.90
54202;DHT22;40108;53.152;5.844;2023-02-08T06:05:47;-3274.60;92.90
54202;DHT22;40108;53.152;5.844;2023-02-08T06:08:21;-3274.60;93.00
54202;DHT22;40108;53.152;5.844;2023-02-08T06:11:12;-3274.60;93.00
54202;DHT22;40108;53.152;5.844;2023-02-08T06:13:43;-3274.60;92.90
54202;DHT22;40108;53.152;5.844;2023-02-08T06:16:20;-3274.60;93.00
54202;DHT22;40108;53.152;5.844;2023-02-08T06:18:54;-3274.60;93.00
54202;DHT22;40108;53.152;5.844;2023-02-08T06:21:26;-3274.60;93.00
54202;DHT22;40108;53.152;5.844;2023-02-08T06:24:10;-3274.60;93.00
54202;DHT22;40108;53.152;5.844;2023-02-08T06:29:34;-3274.60;93.00
54202;DHT22;40108;53.152;5.844;2023-02-08T06:47:38;-3274.60;92.90
54202;DHT22;40108;53.152;5.844;2023-02-08T06:50:07;-3274.50;92.90
54202;DHT22;40108;53.152;5.844;2023-02-08T06:55:57;-3274.60;93.00
54202;DHT22;40108;53.152;5.844;2023-02-08T06:58:34;-3274.60;93.00
54202;DHT22;40108;53.152;5.844;2023-02-08T07:01:05;-3274.60;92.90
54202;DHT22;40108;53.152;5.844;2023-02-08T07:03:33;-3274.60;93.00
54202;DHT22;40108;53.152;5.844;2023-02-08T07:06:10;-3274.60;93.00
54202;DHT22;40108;53.152;5.844;2023-02-08T07:08:43;-3274.60;92.90
54202;DHT22;40108;53.152;5.844;2023-02-08T07:11:13;-3274.60;92.90
54202;DHT22;40108;53.152;5.844;2023-02-08T07:13:48;-3274.60;92.90
54202;DHT22;40108;53.152;5.844;2023-02-08T07:16:17;-3274.60;92.80
54202;DHT22;40108;53.152;5.844;2023-02-08T07:18:55;-3274.60;92.80
54202;DHT22;40108;53.152;5.844;2023-02-08T07:21:35;-3274.60;92.80
54202;DHT22;40108;53.152;5.844;2023-02-08T07:24:13;-3274.60;92.70
54202;DHT22;40108;53.152;5.844;2023-02-08T07:26:47;-3274.60;92.70
54202;DHT22;40108;53.152;5.844;2023-02-08T07:29:18;-3274.60;92.70
54202;DHT22;40108;53.152;5.844;2023-02-08T07:32:07;-3274.60;92.70
54202;DHT22;40108;53.152;5.844;2023-02-08T07:34:45;-3274.60;92.60
54202;DHT22;40108;53.152;5.844;2023-02-08T07:37:21;-3274.60;92.70
54202;DHT22;40108;53.152;5.844;2023-02-08T07:39:56;-3274.60;92.60
54202;DHT22;40108;53.152;5.844;2023-02-08T07:42:35;-3274.60;92.70
54202;DHT22;40108;53.152;5.844;2023-02-08T07:45:18;-3274.60;92.70
54202;DHT22;40108;53.152;5.844;2023-02-08T07:50:44;-3274.60;92.60
54202;DHT22;40108;53.152;5.844;2023-02-08T07:53:30;-3274.60;92.60
54202;DHT22;40108;53.152;5.844;2023-02-08T07:56:05;-3274.60;92.60
54202;DHT22;40108;53.152;5.844;2023-02-08T07:58:33;-3274.60;92.60
54202;DHT22;40108;53.152;5.844;2023-02-08T08:01:07;-3274.60;92.60
54202;DHT22;40108;53.152;5.844;2023-02-08T08:04:03;-3274.60;92.60
54202;DHT22;40108;53.152;5.844;2023-02-08T08:06:34;-3274.70;92.70
54202;DHT22;40108;53.152;5.844;2023-02-08T08:09:12;-3274.80;92.70
54202;DHT22;40108;53.152;5.844;2023-02-08T08:11:40;-3274.80;92.70
54202;DHT22;40108;53.152;5.844;2023-02-08T08:14:11;-3274.90;92.60
54202;DHT22;40108;53.152;5.844;2023-02-08T08:16:40;-3274.90;92.60
54202;DHT22;40108;53.152;5.844;2023-02-08T08:19:10;-3275.00;92.60
54202;DHT22;40108;53.152;5.844;2023-02-08T08:21:36;-3275.00;92.50
54202;DHT22;40108;53.152;5.844;2023-02-08T08:24:06;-3275.10;92.60
54202;DHT22;40108;53.152;5.844;2023-02-08T08:35:08;-3275.40;92.30
54202;DHT22;40108;53.152;5.844;2023-02-08T08:37:41;-3275.40;92.10
54202;DHT22;40108;53.152;5.844;2023-02-08T08:40:09;-3275.50;92.00
54202;DHT22;40108;53.152;5.844;2023-02-08T08:45:14;-3275.70;91.90
54202;DHT22;40108;53.152;5.844;2023-02-08T08:47:58;-3275.80;91.80
54202;DHT22;40108;53.152;5.844;2023-02-08T08:50:34;-3276.00;91.70
54202;DHT22;40108;53.152;5.844;2023-02-08T08:53:10;-3276.30;91.70
54202;DHT22;40108;53.152;5.844;2023-02-08T08:55:41;-3276.60;91.40
54202;DHT22;40108;53.152;5.844;2023-02-08T08:58:20;0.00;91.10
54202;DHT22;40108;53.152;5.844;2023-02-08T09:01:03;0.30;90.40
54202;DHT22;40108;53.152;5.844;2023-02-08T09:03:44;0.60;89.90
54202;DHT22;40108;53.152;5.844;2023-02-08T09:06:14;0.80;89.70
54202;DHT22;40108;53.152;5.844;2023-02-08T09:08:55;1.10;89.50
54202;DHT22;40108;53.152;5.844;2023-02-08T09:11:33;1.30;88.90
54202;DHT22;40108;53.152;5.844;2023-02-08T09:14:10;1.50;88.20
54202;DHT22;40108;53.152;5.844;2023-02-08T09:17:04;1.70;86.90
54202;DHT22;40108;53.152;5.844;2023-02-08T09:19:50;1.90;85.80
54202;DHT22;40108;53.152;5.844;2023-02-08T09:22:26;2.00;84.70
54202;DHT22;40108;53.152;5.844;2023-02-08T09:25:05;2.10;83.40
54202;DHT22;40108;53.152;5.844;2023-02-08T09:27:33;2.20;82.60
54202;DHT22;40108;53.152;5.844;2023-02-08T09:30:00;2.20;82.30
54202;DHT22;40108;53.152;5.844;2023-02-08T09:32:32;2.30;81.80
54202;DHT22;40108;53.152;5.844;2023-02-08T09:35:12;2.40;81.70
54202;DHT22;40108;53.152;5.844;2023-02-08T09:37:46;2.50;81.50
54202;DHT22;40108;53.152;5.844;2023-02-08T09:40:23;2.60;80.80
54202;DHT22;40108;53.152;5.844;2023-02-08T09:43:06;2.70;80.50
54202;DHT22;40108;53.152;5.844;2023-02-08T09:45:48;2.70;80.00
54202;DHT22;40108;53.152;5.844;2023-02-08T09:48:54;2.90;80.10
54202;DHT22;40108;53.152;5.844;2023-02-08T09:51:40;3.10;79.60
54202;DHT22;40108;53.152;5.844;2023-02-08T09:54:20;3.20;79.10
54202;DHT22;40108;53.152;5.844;2023-02-08T09:57:02;3.40;78.50
54202;DHT22;40108;53.152;5.844;2023-02-08T09:59:48;3.50;78.20
54202;DHT22;40108;53.152;5.844;2023-02-08T10:02:25;3.60;77.10
54202;DHT22;40108;53.152;5.844;2023-02-08T10:05:04;3.70;77.50
54202;DHT22;40108;53.152;5.844;2023-02-08T10:07:58;3.80;77.00
54202;DHT22;40108;53.152;5.844;2023-02-08T10:10:41;4.00;76.30
54202;DHT22;40108;53.152;5.844;2023-02-08T10:25:49;4.70;73.80
54202;DHT22;40108;53.152;5.844;2023-02-08T11:11:21;5.50;63.00
54202;DHT22;40108;53.152;5.844;2023-02-08T11:19:32;5.40;64.70
54202;DHT22;40108;53.152;5.844;2023-02-08T11:22:29;5.40;64.60
54202;DHT22;40108;53.152;5.844;2023-02-08T11:34:38;6.00;64.60
54202;DHT22;40108;53.152;5.844;2023-02-08T11:53:40;6.50;59.20
54202;DHT22;40108;53.152;5.844;2023-02-08T11:58:45;6.60;59.60
54202;DHT22;40108;53.152;5.844;2023-02-08T12:01:24;6.70;58.80
54202;DHT22;40108;53.152;5.844;2023-02-08T12:04:08;6.80;57.90
54202;DHT22;40108;53.152;5.844;2023-02-08T12:06:59;6.70;58.00
54202;DHT22;40108;53.152;5.844;2023-02-08T12:15:26;6.90;56.60
54202;DHT22;40108;53.152;5.844;2023-02-08T12:21:20;6.90;54.70
54202;DHT22;40108;53.152;5.844;2023-02-08T12:23:49;7.00;54.50
54202;DHT22;40108;53.152;5.844;2023-02-08T12:32:02;7.20;54.50
54202;DHT22;40108;53.152;5.844;2023-02-08T12:54:50;7.80;53.20
54202;DHT22;40108;53.152;5.844;2023-02-08T13:00:36;7.50;51.30
54202;DHT22;40108;53.152;5.844;2023-02-08T13:06:14;7.60;52.20
54202;DHT22;40108;53.152;5.844;2023-02-08T13:09:20;7.60;51.90
54202;DHT22;40108;53.152;5.844;2023-02-08T13:17:41;7.70;53.00
54202;DHT22;40108;53.152;5.844;2023-02-08T13:23:26;7.70;52.70
54202;DHT22;40108;53.152;5.844;2023-02-08T13:26:15;7.70;51.60
54202;DHT22;40108;53.152;5.844;2023-02-08T13:28:57;7.40;51.40
54202;DHT22;40108;53.152;5.844;2023-02-08T13:31:46;7.00;52.40
54202;DHT22;40108;53.152;5.844;2023-02-08T13:43:23;6.20;55.40
54202;DHT22;40108;53.152;5.844;2023-02-08T13:45:54;6.00;55.40
54202;DHT22;40108;53.152;5.844;2023-02-08T13:48:50;6.00;55.50
54202;DHT22;40108;53.152;5.844;2023-02-08T13:57:53;5.90;55.80
54202;DHT22;40108;53.152;5.844;2023-02-08T14:00:36;5.90;55.10
54202;DHT22;40108;53.152;5.844;2023-02-08T14:03:42;5.90;54.70
54202;DHT22;40108;53.152;5.844;2023-02-08T14:06:42;6.00;56.30
54202;DHT22;40108;53.152;5.844;2023-02-08T14:09:43;5.90;56.10
54202;DHT22;40108;53.152;5.844;2023-02-08T14:12:25;6.00;56.70
54202;DHT22;40108;53.152;5.844;2023-02-08T14:17:49;6.00;58.70
54202;DHT22;40108;53.152;5.844;2023-02-08T14:20:33;6.00;57.00
54202;DHT22;40108;53.152;5.844;2023-02-08T14:26:08;5.90;56.20
54202;DHT22;40108;53.152;5.844;2023-02-08T14:29:06;5.90;54.90
54202;DHT22;40108;53.152;5.844;2023-02-08T14:31:44;5.80;55.70
54202;DHT22;40108;53.152;5.844;2023-02-08T14:37:41;5.90;57.10
54202;DHT22;40108;53.152;5.844;2023-02-08T14:47:57;5.70;57.80
54202;DHT22;40108;53.152;5.844;2023-02-08T14:54:13;5.60;57.30
54202;DHT22;40108;53.152;5.844;2023-02-08T14:56:58;5.70;57.80
54202;DHT22;40108;53.152;5.844;2023-02-08T14:59:31;5.60;58.80
54202;DHT22;40108;53.152;5.844;2023-02-08T15:02:14;5.60;59.50
54202;DHT22;40108;53.152;5.844;2023-02-08T15:07:47;5.50;60.10
54202;DHT22;40108;53.152;5.844;2023-02-08T15:10:23;5.50;59.80
54202;DHT22;40108;53.152;5.844;2023-02-08T15:13:05;5.50;60.10
54202;DHT22;40108;53.152;5.844;2023-02-08T15:15:45;5.40;59.30
54202;DHT22;40108;53.152;5.844;2023-02-08T15:18:26;5.40;59.60
54202;DHT22;40108;53.152;5.844;2023-02-08T15:21:02;5.30;60.00
54202;DHT22;40108;53.152;5.844;2023-02-08T15:23:29;5.30;60.60
54202;DHT22;40108;53.152;5.844;2023-02-08T15:25:59;5.30;60.40
54202;DHT22;40108;53.152;5.844;2023-02-08T15:28:30;5.30;60.40
54202;DHT22;40108;53.152;5.844;2023-02-08T15:31:07;5.20;60.30
54202;DHT22;40108;53.152;5.844;2023-02-08T15:33:37;5.20;60.10
54202;DHT22;40108;53.152;5.844;2023-02-08T15:36:29;5.20;60.30
54202;DHT22;40108;53.152;5.844;2023-02-08T15:38:57;5.10;60.70
54202;DHT22;40108;53.152;5.844;2023-02-08T15:41:27;5.00;61.30
54202;DHT22;40108;53.152;5.844;2023-02-08T15:44:21;5.00;61.80
54202;DHT22;40108;53.152;5.844;2023-02-08T15:46:49;4.90;61.90
54202;DHT22;40108;53.152;5.844;2023-02-08T15:49:43;4.80;62.30
54202;DHT22;40108;53.152;5.844;2023-02-08T15:52:16;4.80;62.80
54202;DHT22;40108;53.152;5.844;2023-02-08T15:54:46;4.70;63.00
54202;DHT22;40108;53.152;5.844;2023-02-08T16:00:03;4.60;62.90
54202;DHT22;40108;53.152;5.844;2023-02-08T16:02:33;4.50;62.60
54202;DHT22;40108;53.152;5.844;2023-02-08T16:05:00;4.50;62.40
54202;DHT22;40108;53.152;5.844;2023-02-08T16:07:36;4.40;62.10
54202;DHT22;40108;53.152;5.844;2023-02-08T16:10:04;4.30;62.10
54202;DHT22;40108;53.152;5.844;2023-02-08T16:12:30;4.30;62.50
54202;DHT22;40108;53.152;5.844;2023-02-08T16:14:56;4.20;62.70
54202;DHT22;40108;53.152;5.844;2023-02-08T16:17:43;4.10;63.00
54202;DHT22;40108;53.152;5.844;2023-02-08T16:20:28;4.10;62.90
54202;DHT22;40108;53.152;5.844;2023-02-08T16:23:03;4.00;63.60
54202;DHT22;40108;53.152;5.844;2023-02-08T16:25:46;3.90;64.00
54202;DHT22;40108;53.152;5.844;2023-02-08T16:28:29;3.80;64.40
54202;DHT22;40108;53.152;5.844;2023-02-08T16:30:57;3.80;64.60
54202;DHT22;40108;53.152;5.844;2023-02-08T16:33:26;3.70;65.00
54202;DHT22;40108;53.152;5.844;2023-02-08T16:36:02;3.70;65.10
54202;DHT22;40108;53.152;5.844;2023-02-08T16:38:30;3.60;65.40
54202;DHT22;40108;53.152;5.844;2023-02-08T16:40:57;3.50;65.80
54202;DHT22;40108;53.152;5.844;2023-02-08T16:43:44;3.40;65.70
54202;DHT22;40108;53.152;5.844;2023-02-08T16:46:15;3.30;65.80
54202;DHT22;40108;53.152;5.844;2023-02-08T16:48:49;3.30;66.10
54202;DHT22;40108;53.152;5.844;2023-02-08T16:51:22;3.20;66.00
54202;DHT22;40108;53.152;5.844;2023-02-08T16:53:52;3.20;66.30
54202;DHT22;40108;53.152;5.844;2023-02-08T16:56:19;3.20;66.40
54202;DHT22;40108;53.152;5.844;2023-02-08T16:58:46;3.10;66.60
54202;DHT22;40108;53.152;5.844;2023-02-08T17:01:12;3.00;66.60
54202;DHT22;40108;53.152;5.844;2023-02-08T17:03:39;3.00;66.60
54202;DHT22;40108;53.152;5.844;2023-02-08T17:06:06;3.00;66.70
54202;DHT22;40108;53.152;5.844;2023-02-08T17:08:32;2.90;67.00
54202;DHT22;40108;53.152;5.844;2023-02-08T17:11:00;2.80;67.20
54202;DHT22;40108;53.152;5.844;2023-02-08T17:13:28;2.70;67.50
54202;DHT22;40108;53.152;5.844;2023-02-08T17:15:57;2.70;67.90
54202;DHT22;40108;53.152;5.844;2023-02-08T17:18:28;2.60;68.00
54202;DHT22;40108;53.152;5.844;2023-02-08T17:20:59;2.60;68.10
54202;DHT22;40108;53.152;5.844;2023-02-08T17:23:26;2.50;68.30
54202;DHT22;40108;53.152;5.844;2023-02-08T17:25:52;2.40;68.40
54202;DHT22;40108;53.152;5.844;2023-02-08T17:28:19;2.40;68.40
54202;DHT22;40108;53.152;5.844;2023-02-08T17:30:48;2.30;68.50
54202;DHT22;40108;53.152;5.844;2023-02-08T17:33:14;2.20;68.60
54202;DHT22;40108;53.152;5.844;2023-02-08T17:42:15;2.10;68.90
54202;DHT22;40108;53.152;5.844;2023-02-08T17:44:47;2.00;68.80
54202;DHT22;40108;53.152;5.844;2023-02-08T17:47:16;2.00;69.00
54202;DHT22;40108;53.152;5.844;2023-02-08T17:49:44;2.00;69.10
54202;DHT22;40108;53.152;5.844;2023-02-08T17:52:25;2.00;68.60
54202;DHT22;40108;53.152;5.844;2023-02-08T17:55:04;1.90;68.20
54202;DHT22;40108;53.152;5.844;2023-02-08T17:57:39;2.00;67.90
54202;DHT22;40108;53.152;5.844;2023-02-08T18:00:13;1.90;67.70
54202;DHT22;40108;53.152;5.844;2023-02-08T18:26:01;1.80;67.30
54202;DHT22;40108;53.152;5.844;2023-02-08T18:32:17;1.70;68.00
54202;DHT22;40108;53.152;5.844;2023-02-08T18:34:48;1.60;68.30
54202;DHT22;40108;53.152;5.844;2023-02-08T18:37:14;1.60;68.20
54202;DHT22;40108;53.152;5.844;2023-02-08T18:39:58;1.60;68.30
54202;DHT22;40108;53.152;5.844;2023-02-08T18:42:39;1.60;68.40
54202;DHT22;40108;53.152;5.844;2023-02-08T18:45:08;1.60;68.40
54202;DHT22;40108;53.152;5.844;2023-02-08T18:47:39;1.60;68.20
54202;DHT22;40108;53.152;5.844;2023-02-08T18:50:15;1.60;67.70
54202;DHT22;40108;53.152;5.844;2023-02-08T18:52:41;1.60;67.40
54202;DHT22;40108;53.152;5.844;2023-02-08T18:55:07;1.70;67.10
54202;DHT22;40108;53.152;5.844;2023-02-08T18:57:33;1.70;66.70
54202;DHT22;40108;53.152;5.844;2023-02-08T19:00:03;1.60;66.70
54202;DHT22;40108;53.152;5.844;2023-02-08T19:02:32;1.60;66.40
54202;DHT22;40108;53.152;5.844;2023-02-08T19:04:58;1.60;66.30
54202;DHT22;40108;53.152;5.844;2023-02-08T19:07:24;1.50;66.20
54202;DHT22;40108;53.152;5.844;2023-02-08T19:09:57;1.50;65.80
54202;DHT22;40108;53.152;5.844;2023-02-08T19:12:26;1.50;65.20
54202;DHT22;40108;53.152;5.844;2023-02-08T19:14:51;1.60;64.90
54202;DHT22;40108;53.152;5.844;2023-02-08T19:17:17;1.60;64.50
54202;DHT22;40108;53.152;5.844;2023-02-08T19:19:53;1.60;64.40
54202;DHT22;40108;53.152;5.844;2023-02-08T19:22:24;1.60;64.80
54202;DHT22;40108;53.152;5.844;2023-02-08T19:45:36;1.20;67.10
54202;DHT22;40108;53.152;5.844;2023-02-08T19:48:14;1.20;67.40
54202;DHT22;40108;53.152;5.844;2023-02-08T19:51:05;1.20;67.50
54202;DHT22;40108;53.152;5.844;2023-02-08T19:53:34;1.20;67.60
54202;DHT22;40108;53.152;5.844;2023-02-08T19:56:07;1.20;67.70
54202;DHT22;40108;53.152;5.844;2023-02-08T19:58:49;1.20;67.70
54202;DHT22;40108;53.152;5.844;2023-02-08T20:01:21;1.20;68.10
54202;DHT22;40108;53.152;5.844;2023-02-08T20:04:01;1.20;68.30
54202;DHT22;40108;53.152;5.844;2023-02-08T20:06:39;1.20;68.40
54202;DHT22;40108;53.152;5.844;2023-02-08T20:09:10;1.20;68.60
54202;DHT22;40108;53.152;5.844;2023-02-08T20:11:39;1.20;68.20
54202;DHT22;40108;53.152;5.844;2023-02-08T20:14:06;1.20;68.10
54202;DHT22;40108;53.152;5.844;2023-02-08T20:16:37;1.20;68.40
54202;DHT22;40108;53.152;5.844;2023-02-08T20:19:34;1.20;68.60
54202;DHT22;40108;53.152;5.844;2023-02-08T20:22:03;1.20;69.30
54202;DHT22;40108;53.152;5.844;2023-02-08T20:24:29;1.10;70.00
54202;DHT22;40108;53.152;5.844;2023-02-08T20:26:57;1.00;70.40
54202;DHT22;40108;53.152;5.844;2023-02-08T20:29:26;1.00;70.50
54202;DHT22;40108;53.152;5.844;2023-02-08T20:32:00;1.10;70.70
54202;DHT22;40108;53.152;5.844;2023-02-08T20:34:37;1.10;70.60
54202;DHT22;40108;53.152;5.844;2023-02-08T20:37:19;1.10;70.80
54202;DHT22;40108;53.152;5.844;2023-02-08T20:39:52;1.20;70.80
54202;DHT22;40108;53.152;5.844;2023-02-08T20:42:30;1.20;70.80
54202;DHT22;40108;53.152;5.844;2023-02-08T20:44:56;1.20;71.00
54202;DHT22;40108;53.152;5.844;2023-02-08T20:47:28;1.10;71.20
54202;DHT22;40108;53.152;5.844;2023-02-08T20:49:56;1.00;71.50
54202;DHT22;40108;53.152;5.844;2023-02-08T20:52:25;1.00;71.80
54202;DHT22;40108;53.152;5.844;2023-02-08T20:55:01;1.00;72.10
54202;DHT22;40108;53.152;5.844;2023-02-08T20:57:30;0.90;72.40
54202;DHT22;40108;53.152;5.844;2023-02-08T21:00:01;0.90;72.80
54202;DHT22;40108;53.152;5.844;2023-02-08T21:08:10;0.60;73.90
54202;DHT22;40108;53.152;5.844;2023-02-08T21:10:46;0.60;74.40
54202;DHT22;40108;53.152;5.844;2023-02-08T21:13:25;0.60;74.40
54202;DHT22;40108;53.152;5.844;2023-02-08T21:16:09;0.60;74.50
54202;DHT22;40108;53.152;5.844;2023-02-08T21:18:47;0.50;74.30
54202;DHT22;40108;53.152;5.844;2023-02-08T21:21:16;0.50;74.20
54202;DHT22;40108;53.152;5.844;2023-02-08T21:23:42;0.50;74.10
54202;DHT22;40108;53.152;5.844;2023-02-08T21:26:14;0.50;74.20
54202;DHT22;40108;53.152;5.844;2023-02-08T21:28:40;0.60;74.40
54202;DHT22;40108;53.152;5.844;2023-02-08T21:31:11;0.50;74.50
54202;DHT22;40108;53.152;5.844;2023-02-08T21:33:46;0.60;74.50
54202;DHT22;40108;53.152;5.844;2023-02-08T21:36:20;0.60;74.40
54202;DHT22;40108;53.152;5.844;2023-02-08T21:38:52;0.60;74.30
54202;DHT22;40108;53.152;5.844;2023-02-08T21:41:28;0.70;74.00
54202;DHT22;40108;53.152;5.844;2023-02-08T21:43:57;0.70;73.90
54202;DHT22;40108;53.152;5.844;2023-02-08T21:46:23;0.70;73.70
54202;DHT22;40108;53.152;5.844;2023-02-08T21:48:50;0.70;73.60
54202;DHT22;40108;53.152;5.844;2023-02-08T21:51:37;0.70;73.40
54202;DHT22;40108;53.152;5.844;2023-02-08T21:54:24;0.60;73.40
54202;DHT22;40108;53.152;5.844;2023-02-08T21:57:00;0.60;73.50
54202;DHT22;40108;53.152;5.844;2023-02-08T21:59:27;0.50;73.60
54202;DHT22;40108;53.152;5.844;2023-02-08T22:01:53;0.60;73.70
54202;DHT22;40108;53.152;5.844;2023-02-08T22:04:19;0.50;73.90
54202;DHT22;40108;53.152;5.844;2023-02-08T22:06:45;0.40;74.20
54202;DHT22;40108;53.152;5.844;2023-02-08T22:09:11;0.40;74.70
54202;DHT22;40108;53.152;5.844;2023-02-08T22:11:37;0.30;74.90
54202;DHT22;40108;53.152;5.844;2023-02-08T22:14:03;0.30;75.00
54202;DHT22;40108;53.152;5.844;2023-02-08T22:16:36;0.20;75.10
54202;DHT22;40108;53.152;5.844;2023-02-08T22:19:07;0.20;75.10
54202;DHT22;40108;53.152;5.844;2023-02-08T22:21:44;0.20;75.20
54202;DHT22;40108;53.152;5.844;2023-02-08T22:24:10;0.20;75.10
54202;DHT22;40108;53.152;5.844;2023-02-08T22:26:46;0.20;75.10
54202;DHT22;40108;53.152;5.844;2023-02-08T22:29:14;0.20;75.10
54202;DHT22;40108;53.152;5.844;2023-02-08T22:31:48;0.20;75.20
54202;DHT22;40108;53.152;5.844;2023-02-08T22:34:32;0.10;75.20